Time;durP1;ratioP1;P1;durP2;ratioP2;P2;SDS_P1;SDS_P2;PMS_P1;PMS_P2;Temp;Humidity;BMP_temperature;BMP_pressure;BME280_temperature;BME280_humidity;BME280_pressure;Samples;Min_cycle;Max_cycle;Signal;HPM_P1;HPM_P2
2021/04/14 00:01:37;;;;;;;;;;;20.50;72.80;;;;;;5006913;28;19925;-81
2021/04/14 00:04:05;;;;;;;;;;;20.60;71.60;;;;;;5005216;28;19955;-82
2021/04/14 00:06:43;;;;;;;;;;;20.70;69.90;;;;;;5007814;28;20330;-78
2021/04/14 00:09:29;;;;;;;;;;;20.70;70.50;;;;;;5005465;28;20029;-79
2021/04/14 00:12:11;;;;;;;;;;;20.80;70.60;;;;;;4993990;28;19910;-80
2021/04/14 00:14:38;;;;;;;;;;;20.90;70.00;;;;;;4985024;28;19937;-78
2021/04/14 00:17:06;;;;;;;;;;;21.00;69.50;;;;;;5005375;28;20407;-78
2021/04/14 00:19:42;;;;;;;;;;;21.20;68.10;;;;;;5001752;28;20962;-77
2021/04/14 00:22:18;;;;;;;;;;;21.30;66.00;;;;;;5005445;28;19920;-77
2021/04/14 00:24:45;;;;;;;;;;;21.30;65.50;;;;;;5004630;28;19939;-78
2021/04/14 00:27:11;;;;;;;;;;;21.50;65.60;;;;;;5005383;28;19982;-79
2021/04/14 00:29:50;;;;;;;;;;;21.30;64.70;;;;;;5005639;28;19914;-78
2021/04/14 00:32:18;;;;;;;;;;;21.20;64.80;;;;;;5005907;28;19910;-79
2021/04/14 00:34:45;;;;;;;;;;;21.30;66.60;;;;;;5004140;28;19914;-79
2021/04/14 00:37:12;;;;;;;;;;;21.50;65.30;;;;;;5004033;28;20391;-79
2021/04/14 00:39:38;;;;;;;;;;;21.60;64.80;;;;;;5015768;28;19922;-80
2021/04/14 00:42:05;;;;;;;;;;;21.50;64.10;;;;;;5105731;28;19912;-77
2021/04/14 00:44:32;;;;;;;;;;;21.40;65.40;;;;;;5107881;28;20029;-77
2021/04/14 00:46:58;;;;;;;;;;;21.30;67.40;;;;;;5089257;28;19912;-78
2021/04/14 00:49:28;;;;;;;;;;;21.60;64.70;;;;;;5108137;28;19912;-80
2021/04/14 00:51:55;;;;;;;;;;;21.70;65.50;;;;;;5102004;28;19919;-79
2021/04/14 00:54:27;;;;;;;;;;;21.70;65.90;;;;;;5094746;28;20408;-80
2021/04/14 00:56:54;;;;;;;;;;;21.70;64.40;;;;;;5094395;28;20018;-77
2021/04/14 00:59:20;;;;;;;;;;;21.70;64.10;;;;;;5094303;28;19916;-75
2021/04/14 01:01:47;;;;;;;;;;;21.80;59.90;;;;;;5091817;28;19920;-75
2021/04/14 01:04:14;;;;;;;;;;;21.90;58.30;;;;;;5076317;28;19908;-75
2021/04/14 01:06:43;;;;;;;;;;;22.00;58.60;;;;;;5101130;28;19919;-76
2021/04/14 01:09:11;;;;;;;;;;;22.10;57.30;;;;;;5125800;28;19908;-80
2021/04/14 01:11:37;;;;;;;;;;;22.30;59.30;;;;;;5131496;28;19914;-77
2021/04/14 01:14:04;;;;;;;;;;;22.60;57.80;;;;;;5122527;28;19908;-78
2021/04/14 01:16:31;;;;;;;;;;;22.90;56.50;;;;;;5112170;28;19919;-78
2021/04/14 01:18:58;;;;;;;;;;;23.00;55.50;;;;;;5112481;28;19964;-77
2021/04/14 01:21:31;;;;;;;;;;;23.10;55.30;;;;;;5111141;28;19916;-78
2021/04/14 01:23:58;;;;;;;;;;;23.40;58.70;;;;;;5111285;28;19965;-76
2021/04/14 01:26:25;;;;;;;;;;;24.50;56.50;;;;;;5111707;28;19915;-79
2021/04/14 01:28:51;;;;;;;;;;;24.60;52.70;;;;;;5111027;28;19919;-81
2021/04/14 01:31:32;;;;;;;;;;;24.50;54.40;;;;;;5111356;28;19938;-80
2021/04/14 01:34:03;;;;;;;;;;;24.40;55.00;;;;;;5088555;28;19963;-79
2021/04/14 01:36:30;;;;;;;;;;;24.00;54.50;;;;;;5096659;28;19912;-78
2021/04/14 01:39:00;;;;;;;;;;;23.60;53.80;;;;;;5096869;28;19942;-79
2021/04/14 01:41:27;;;;;;;;;;;23.40;54.80;;;;;;5093047;28;19920;-75
2021/04/14 01:43:54;;;;;;;;;;;23.30;55.60;;;;;;5097562;28;20463;-78
2021/04/14 01:46:21;;;;;;;;;;;23.20;56.70;;;;;;5096066;28;19916;-77
2021/04/14 01:48:47;;;;;;;;;;;23.20;55.00;;;;;;5076215;28;19918;-79
2021/04/14 01:51:15;;;;;;;;;;;23.20;54.30;;;;;;5092782;28;19938;-78
2021/04/14 01:53:41;;;;;;;;;;;23.10;54.50;;;;;;5094051;28;20379;-78
2021/04/14 01:56:10;;;;;;;;;;;23.00;55.90;;;;;;5094388;28;19927;-76
2021/04/14 01:58:37;;;;;;;;;;;22.90;56.00;;;;;;5094677;28;19916;-77
2021/04/14 02:01:07;;;;;;;;;;;23.00;57.50;;;;;;5094481;28;19921;-80
2021/04/14 02:03:35;;;;;;;;;;;23.30;56.70;;;;;;5091338;28;19919;-76
2021/04/14 02:06:02;;;;;;;;;;;23.20;55.50;;;;;;5094558;28;20003;-79
2021/04/14 02:08:29;;;;;;;;;;;23.10;57.50;;;;;;5094329;28;20319;-75
2021/04/14 02:10:56;;;;;;;;;;;23.20;56.50;;;;;;5074963;28;19916;-75
2021/04/14 02:13:27;;;;;;;;;;;23.20;57.10;;;;;;5093320;28;20061;-75
2021/04/14 02:15:57;;;;;;;;;;;23.30;58.60;;;;;;5094139;28;20294;-77
2021/04/14 02:18:24;;;;;;;;;;;23.50;55.20;;;;;;5092590;28;20045;-76
2021/04/14 02:20:52;;;;;;;;;;;23.40;57.80;;;;;;5094016;28;20378;-77
2021/04/14 02:23:21;;;;;;;;;;;23.30;55.20;;;;;;5094100;28;20012;-78
2021/04/14 02:25:48;;;;;;;;;;;23.40;55.60;;;;;;5094284;28;20314;-76
2021/04/14 02:28:16;;;;;;;;;;;23.40;55.80;;;;;;5105975;28;20358;-77
2021/04/14 02:30:43;;;;;;;;;;;23.70;53.60;;;;;;5093656;28;19916;-80
2021/04/14 02:33:10;;;;;;;;;;;23.80;52.50;;;;;;5075129;28;19920;-76
2021/04/14 02:35:37;;;;;;;;;;;23.80;53.70;;;;;;5093986;28;19915;-76
2021/04/14 02:38:04;;;;;;;;;;;23.50;55.90;;;;;;5094279;28;19935;-77
2021/04/14 02:40:32;;;;;;;;;;;23.40;53.60;;;;;;5092686;28;20682;-75
2021/04/14 02:42:58;;;;;;;;;;;23.40;54.50;;;;;;5091905;28;19912;-75
2021/04/14 02:45:26;;;;;;;;;;;23.30;53.30;;;;;;5093516;28;19916;-76
2021/04/14 02:47:53;;;;;;;;;;;23.40;53.70;;;;;;5093475;28;19959;-76
2021/04/14 02:50:20;;;;;;;;;;;23.30;53.30;;;;;;5092004;28;19912;-78
2021/04/14 02:52:47;;;;;;;;;;;23.20;55.40;;;;;;5093298;28;19912;-77
2021/04/14 02:55:14;;;;;;;;;;;23.20;55.00;;;;;;5092804;28;19916;-76
2021/04/14 02:57:41;;;;;;;;;;;23.20;56.40;;;;;;5093454;28;19931;-75
2021/04/14 03:00:08;;;;;;;;;;;23.00;55.90;;;;;;5092486;28;19920;-77
2021/04/14 03:02:38;;;;;;;;;;;23.10;56.20;;;;;;5092739;28;19919;-79
2021/04/14 03:05:05;;;;;;;;;;;23.00;55.90;;;;;;5092519;28;20286;-76
2021/04/14 03:07:32;;;;;;;;;;;23.00;57.50;;;;;;5092533;28;20567;-76
2021/04/14 03:09:59;;;;;;;;;;;23.00;56.10;;;;;;5090197;28;19951;-75
2021/04/14 03:12:25;;;;;;;;;;;22.90;56.10;;;;;;5090558;28;19912;-76
2021/04/14 03:14:52;;;;;;;;;;;22.90;56.30;;;;;;5074272;28;19923;-76
2021/04/14 03:17:19;;;;;;;;;;;22.90;56.70;;;;;;5093634;28;19915;-78
2021/04/14 03:19:46;;;;;;;;;;;22.80;57.40;;;;;;5091991;28;19923;-75
2021/04/14 03:22:12;;;;;;;;;;;22.70;58.20;;;;;;5092377;28;19919;-76
2021/04/14 03:24:39;;;;;;;;;;;22.50;57.00;;;;;;5090739;28;19965;-76
2021/04/14 03:27:06;;;;;;;;;;;22.50;58.20;;;;;;5091169;28;19908;-76
2021/04/14 03:29:32;;;;;;;;;;;22.50;57.10;;;;;;5090708;28;20259;-77
2021/04/14 03:31:59;;;;;;;;;;;22.40;57.20;;;;;;5090197;28;19963;-76
2021/04/14 03:34:26;;;;;;;;;;;22.40;57.20;;;;;;5074756;28;20435;-77
2021/04/14 03:36:53;;;;;;;;;;;22.50;56.30;;;;;;5089009;28;20349;-76
2021/04/14 03:39:19;;;;;;;;;;;22.50;56.30;;;;;;5090841;28;19916;-75
2021/04/14 03:41:49;;;;;;;;;;;22.50;57.50;;;;;;5090398;28;19923;-77
2021/04/14 03:44:19;;;;;;;;;;;22.40;58.50;;;;;;5092614;28;19923;-76
2021/04/14 03:46:46;;;;;;;;;;;22.60;58.80;;;;;;5089954;28;19912;-80
2021/04/14 03:49:12;;;;;;;;;;;22.70;56.90;;;;;;5092187;28;19916;-76
2021/04/14 03:51:39;;;;;;;;;;;22.70;58.40;;;;;;5092402;28;19912;-80
2021/04/14 03:54:09;;;;;;;;;;;22.80;57.40;;;;;;5092510;28;20578;-77
2021/04/14 03:56:35;;;;;;;;;;;22.70;57.70;;;;;;5091935;28;19912;-78
2021/04/14 03:59:02;;;;;;;;;;;22.90;57.80;;;;;;5073947;28;20053;-77
2021/04/14 04:01:30;;;;;;;;;;;22.90;58.30;;;;;;5088491;28;19924;-78
2021/04/14 04:03:57;;;;;;;;;;;22.90;56.50;;;;;;5091746;28;19912;-76
2021/04/14 04:06:24;;;;;;;;;;;23.10;56.80;;;;;;5091911;28;19990;-76
2021/04/14 04:08:51;;;;;;;;;;;23.30;57.20;;;;;;5092804;28;20309;-75
2021/04/14 04:11:19;;;;;;;;;;;23.20;57.90;;;;;;5090385;28;19960;-77
2021/04/14 04:13:52;;;;;;;;;;;23.30;57.10;;;;;;5074089;28;20377;-75
2021/04/14 04:16:23;;;;;;;;;;;23.20;57.90;;;;;;5074777;28;19955;-80
2021/04/14 04:18:53;;;;;;;;;;;23.20;57.80;;;;;;5057829;28;19912;-76
2021/04/14 04:21:43;;;;;;;;;;;23.30;57.30;;;;;;5092899;28;19970;-78
2021/04/14 04:24:08;;;;;;;;;;;23.60;56.20;;;;;;5078141;28;19916;-80
2021/04/14 04:26:36;;;;;;;;;;;23.70;57.30;;;;;;5090792;28;19920;-76
2021/04/14 04:29:03;;;;;;;;;;;23.70;57.60;;;;;;5095633;28;20294;-75
2021/04/14 04:31:30;;;;;;;;;;;23.70;55.90;;;;;;5095427;28;20255;-75
2021/04/14 04:33:56;;;;;;;;;;;23.60;57.20;;;;;;5096179;28;19958;-81
2021/04/14 04:36:23;;;;;;;;;;;23.50;57.20;;;;;;5096519;28;19912;-77
2021/04/14 04:38:50;;;;;;;;;;;23.70;56.70;;;;;;5077388;28;20015;-78
2021/04/14 04:41:16;;;;;;;;;;;24.00;55.60;;;;;;5075661;28;19974;-76
2021/04/14 04:43:43;;;;;;;;;;;23.80;55.40;;;;;;5095126;28;19999;-75
2021/04/14 04:46:10;;;;;;;;;;;23.70;55.30;;;;;;5095773;28;20320;-78
2021/04/14 04:48:36;;;;;;;;;;;23.50;56.50;;;;;;5096266;28;20362;-81
2021/04/14 04:51:05;;;;;;;;;;;23.40;58.20;;;;;;5095492;28;20320;-76
2021/04/14 04:53:32;;;;;;;;;;;23.30;56.50;;;;;;5076100;28;19916;-81
2021/04/14 04:55:59;;;;;;;;;;;23.30;57.60;;;;;;5095846;28;19918;-83
2021/04/14 04:58:26;;;;;;;;;;;23.30;58.30;;;;;;5076782;28;19915;-82
2021/04/14 05:00:53;;;;;;;;;;;23.20;57.30;;;;;;5095696;28;19920;-76
2021/04/14 05:03:21;;;;;;;;;;;23.20;56.80;;;;;;5092924;28;19966;-79
2021/04/14 05:05:47;;;;;;;;;;;23.30;58.00;;;;;;5095070;28;19912;-75
2021/04/14 05:08:14;;;;;;;;;;;23.30;56.30;;;;;;5093926;28;19912;-81
2021/04/14 05:10:40;;;;;;;;;;;23.30;56.30;;;;;;5094881;28;19928;-81
2021/04/14 05:13:09;;;;;;;;;;;23.20;56.70;;;;;;5094294;28;20002;-82
2021/04/14 05:15:38;;;;;;;;;;;23.20;56.70;;;;;;5095313;28;19958;-78
2021/04/14 05:18:05;;;;;;;;;;;23.30;57.90;;;;;;5094827;28;19918;-82
2021/04/14 05:20:32;;;;;;;;;;;23.40;57.60;;;;;;5094289;28;19916;-78
2021/04/14 05:22:59;;;;;;;;;;;23.30;57.10;;;;;;5075906;28;19908;-81
2021/04/14 05:25:30;;;;;;;;;;;23.30;56.90;;;;;;5102267;28;19912;-78
2021/04/14 05:28:00;;;;;;;;;;;23.30;58.30;;;;;;5089826;28;19920;-81
2021/04/14 05:30:26;;;;;;;;;;;23.30;57.80;;;;;;5092185;28;19912;-79
2021/04/14 05:32:53;;;;;;;;;;;23.30;58.30;;;;;;5097990;28;20366;-78
2021/04/14 05:35:20;;;;;;;;;;;23.50;57.50;;;;;;5093709;28;19937;-80
2021/04/14 05:37:48;;;;;;;;;;;23.40;58.40;;;;;;5094476;28;19999;-82
2021/04/14 05:40:15;;;;;;;;;;;23.40;55.20;;;;;;5042826;28;20303;-79
2021/04/14 05:43:04;;;;;;;;;;;23.30;56.20;;;;;;4991743;28;19928;-82
2021/04/14 05:45:31;;;;;;;;;;;23.20;56.40;;;;;;4999988;28;19983;-83
2021/04/14 05:47:58;;;;;;;;;;;23.10;55.30;;;;;;4991866;28;20393;-79
2021/04/14 05:50:26;;;;;;;;;;;23.20;57.50;;;;;;4992109;28;19909;-76
2021/04/14 05:52:53;;;;;;;;;;;23.40;56.70;;;;;;4991722;28;19966;-78
2021/04/14 05:55:21;;;;;;;;;;;23.30;56.90;;;;;;4991873;28;20313;-78
2021/04/14 05:57:47;;;;;;;;;;;23.40;58.00;;;;;;4990460;28;20006;-79
2021/04/14 06:00:15;;;;;;;;;;;23.40;55.40;;;;;;4991489;28;19925;-80
2021/04/14 06:02:42;;;;;;;;;;;23.20;56.00;;;;;;4992475;28;20005;-78
2021/04/14 06:05:10;;;;;;;;;;;23.30;56.30;;;;;;4991853;28;20433;-80
2021/04/14 06:07:37;;;;;;;;;;;23.50;54.40;;;;;;4996511;28;20006;-81
2021/04/14 06:10:05;;;;;;;;;;;23.50;53.40;;;;;;5007064;28;19916;-81
2021/04/14 06:12:31;;;;;;;;;;;23.60;53.70;;;;;;5009886;28;19925;-82
2021/04/14 06:14:58;;;;;;;;;;;23.30;54.30;;;;;;5009821;28;19894;-81
2021/04/14 06:17:25;;;;;;;;;;;23.40;54.30;;;;;;5011848;28;19914;-80
2021/04/14 06:20:09;;;;;;;;;;;23.40;55.70;;;;;;5009177;28;19909;-82
2021/04/14 06:22:37;;;;;;;;;;;23.40;53.70;;;;;;5006298;28;19936;-81
2021/04/14 06:25:05;;;;;;;;;;;23.20;54.10;;;;;;5108093;28;19908;-77
2021/04/14 06:27:46;;;;;;;;;;;23.30;54.30;;;;;;5046911;28;20348;-76
2021/04/14 06:30:13;;;;;;;;;;;23.30;54.00;;;;;;5007289;28;19918;-74
2021/04/14 06:32:40;;;;;;;;;;;23.30;54.50;;;;;;5003011;28;20328;-76
2021/04/14 06:35:08;;;;;;;;;;;23.20;56.00;;;;;;5003500;28;19914;-76
2021/04/14 06:37:36;;;;;;;;;;;23.20;55.90;;;;;;4991661;28;20364;-76
2021/04/14 06:42:55;;;;;;;;;;;23.20;54.90;;;;;;4987454;28;19920;-77
2021/04/14 06:45:28;;;;;;;;;;;23.30;55.00;;;;;;4990330;28;20625;-76
2021/04/14 06:47:55;;;;;;;;;;;23.10;54.70;;;;;;4989685;28;20008;-75
2021/04/14 06:50:38;;;;;;;;;;;23.10;54.80;;;;;;4989075;28;19990;-82
2021/04/14 06:53:13;;;;;;;;;;;23.00;54.90;;;;;;4989002;28;19914;-76
2021/04/14 06:56:06;;;;;;;;;;;22.90;55.90;;;;;;5009491;28;19923;-79
2021/04/14 06:59:01;;;;;;;;;;;22.90;54.50;;;;;;4986373;28;20337;-75
2021/04/14 07:01:34;;;;;;;;;;;23.00;53.90;;;;;;4998885;28;19956;-76
2021/04/14 07:04:08;;;;;;;;;;;23.00;54.70;;;;;;4990407;28;19921;-77
2021/04/14 07:06:37;;;;;;;;;;;22.90;54.10;;;;;;4990248;28;20357;-79
2021/04/14 07:09:08;;;;;;;;;;;22.80;54.80;;;;;;4993221;28;19917;-76
2021/04/14 07:11:35;;;;;;;;;;;22.80;56.10;;;;;;4983592;28;19910;-75
2021/04/14 07:14:02;;;;;;;;;;;22.90;54.40;;;;;;4993203;28;19914;-78
2021/04/14 07:16:28;;;;;;;;;;;22.90;54.70;;;;;;4990204;28;20000;-80
2021/04/14 07:19:01;;;;;;;;;;;22.80;55.30;;;;;;4989473;28;19913;-75
2021/04/14 07:21:34;;;;;;;;;;;22.60;55.00;;;;;;4989184;28;20364;-75
2021/04/14 07:24:03;;;;;;;;;;;22.60;55.80;;;;;;4988238;28;19913;-75
2021/04/14 07:26:38;;;;;;;;;;;22.50;55.60;;;;;;4989068;28;19914;-80
2021/04/14 07:29:05;;;;;;;;;;;22.50;56.30;;;;;;4984994;28;19921;-77
2021/04/14 07:31:46;;;;;;;;;;;22.40;58.20;;;;;;4987739;28;19941;-82
2021/04/14 07:34:28;;;;;;;;;;;22.30;58.60;;;;;;5013532;28;19965;-83
2021/04/14 07:37:05;;;;;;;;;;;22.20;58.50;;;;;;4980340;28;19914;-77
2021/04/14 07:39:35;;;;;;;;;;;22.10;59.00;;;;;;4996170;28;20375;-78
2021/04/14 07:42:18;;;;;;;;;;;22.00;59.40;;;;;;5087794;28;20282;-79
2021/04/14 07:45:06;;;;;;;;;;;21.90;59.40;;;;;;5090027;28;19935;-81
2021/04/14 07:47:34;;;;;;;;;;;21.80;60.10;;;;;;5073393;28;20450;-83
2021/04/14 07:50:01;;;;;;;;;;;21.80;60.00;;;;;;5089109;28;19916;-77
2021/04/14 07:52:29;;;;;;;;;;;21.80;60.40;;;;;;5072552;28;19908;-79
2021/04/14 07:54:56;;;;;;;;;;;21.70;61.80;;;;;;5072064;28;19923;-79
2021/04/14 07:57:31;;;;;;;;;;;21.70;60.50;;;;;;5088202;28;19916;-83
2021/04/14 08:00:08;;;;;;;;;;;21.70;60.50;;;;;;5090297;28;19912;-79
2021/04/14 08:02:35;;;;;;;;;;;21.70;60.50;;;;;;5092636;28;19969;-79
2021/04/14 08:05:21;;;;;;;;;;;21.70;60.60;;;;;;5093617;28;19916;-76
2021/04/14 08:07:48;;;;;;;;;;;21.70;61.00;;;;;;5093868;28;19919;-77
2021/04/14 08:10:17;;;;;;;;;;;21.80;60.80;;;;;;5075108;28;19965;-78
2021/04/14 08:12:55;;;;;;;;;;;21.80;60.10;;;;;;5091726;28;20000;-75
2021/04/14 08:15:29;;;;;;;;;;;21.80;60.00;;;;;;5094091;28;19979;-75
2021/04/14 08:18:06;;;;;;;;;;;21.80;60.60;;;;;;5093643;28;19924;-77
2021/04/14 08:20:34;;;;;;;;;;;21.90;62.70;;;;;;5074659;28;19946;-78
2021/04/14 08:23:11;;;;;;;;;;;21.90;59.70;;;;;;5094667;28;20315;-77
2021/04/14 08:25:41;;;;;;;;;;;21.90;61.70;;;;;;5093629;28;19919;-78
2021/04/14 08:28:08;;;;;;;;;;;21.90;65.10;;;;;;5093038;28;19916;-75
2021/04/14 08:30:35;;;;;;;;;;;21.90;61.50;;;;;;5092509;28;19912;-79
2021/04/14 08:33:04;;;;;;;;;;;21.90;62.30;;;;;;5093070;28;19915;-76
2021/04/14 08:35:38;;;;;;;;;;;21.90;62.00;;;;;;5092859;28;19912;-77
2021/04/14 08:38:11;;;;;;;;;;;21.90;62.10;;;;;;5090962;28;20389;-78
2021/04/14 08:40:49;;;;;;;;;;;21.90;60.50;;;;;;5092391;28;20293;-78
2021/04/14 08:43:26;;;;;;;;;;;21.80;62.70;;;;;;5091534;28;20558;-77
2021/04/14 08:45:53;;;;;;;;;;;21.80;62.80;;;;;;5092772;28;20351;-76
2021/04/14 08:48:25;;;;;;;;;;;21.80;59.20;;;;;;5092523;28;19923;-80
2021/04/14 08:50:54;;;;;;;;;;;21.70;57.50;;;;;;5071987;28;19998;-78
2021/04/14 08:53:40;;;;;;;;;;;21.70;56.60;;;;;;5093226;28;19989;-79
2021/04/14 08:56:07;;;;;;;;;;;21.80;59.10;;;;;;5090340;28;19920;-79
2021/04/14 08:58:35;;;;;;;;;;;21.80;58.40;;;;;;5093266;28;19908;-75
2021/04/14 09:01:02;;;;;;;;;;;21.90;57.90;;;;;;5091796;28;20367;-77
2021/04/14 09:03:32;;;;;;;;;;;21.90;55.20;;;;;;5090198;28;19923;-76
2021/04/14 09:05:59;;;;;;;;;;;21.90;55.00;;;;;;5075692;28;20014;-75
2021/04/14 09:08:31;;;;;;;;;;;21.90;55.50;;;;;;5095078;28;19963;-78
2021/04/14 09:11:00;;;;;;;;;;;22.20;55.20;;;;;;5092059;28;19916;-77
2021/04/14 09:13:38;;;;;;;;;;;22.20;55.00;;;;;;5094201;28;19912;-79
2021/04/14 09:16:06;;;;;;;;;;;22.20;55.20;;;;;;5076378;28;19912;-77
2021/04/14 09:18:50;;;;;;;;;;;22.10;54.60;;;;;;5094483;28;19955;-76
2021/04/14 09:21:21;;;;;;;;;;;22.00;55.00;;;;;;5092531;28;19967;-76
2021/04/14 09:23:51;;;;;;;;;;;21.90;55.40;;;;;;5086171;28;20374;-78
2021/04/14 09:26:37;;;;;;;;;;;21.90;56.00;;;;;;5093995;28;19995;-78
2021/04/14 09:29:22;;;;;;;;;;;22.00;56.70;;;;;;5076667;28;20267;-75
2021/04/14 09:31:51;;;;;;;;;;;22.00;57.30;;;;;;5088599;28;20034;-77
2021/04/14 09:34:30;;;;;;;;;;;22.00;54.80;;;;;;5094392;28;20045;-76
2021/04/14 09:37:03;;;;;;;;;;;22.10;54.50;;;;;;5094854;28;19912;-76
2021/04/14 09:39:32;;;;;;;;;;;22.00;55.70;;;;;;5094003;28;19919;-76
2021/04/14 09:41:59;;;;;;;;;;;22.00;55.50;;;;;;5094047;28;19916;-76
2021/04/14 09:44:32;;;;;;;;;;;21.90;55.70;;;;;;5094755;28;20273;-75
2021/04/14 09:47:10;;;;;;;;;;;21.80;58.20;;;;;;5089772;28;19923;-76
2021/04/14 09:49:40;;;;;;;;;;;21.70;57.70;;;;;;5072917;28;19916;-80
2021/04/14 09:52:23;;;;;;;;;;;21.70;57.60;;;;;;5092942;28;20298;-80
2021/04/14 09:54:52;;;;;;;;;;;21.50;56.70;;;;;;5093644;28;20384;-78
2021/04/14 09:57:27;;;;;;;;;;;21.50;58.80;;;;;;5094200;28;19908;-80
2021/04/14 09:59:55;;;;;;;;;;;21.40;57.00;;;;;;5075632;28;20293;-78
2021/04/14 10:02:23;;;;;;;;;;;21.40;56.20;;;;;;5094049;28;19955;-76
2021/04/14 10:04:50;;;;;;;;;;;21.40;58.20;;;;;;5093450;28;20363;-81
2021/04/14 10:07:37;;;;;;;;;;;21.40;55.70;;;;;;5093369;28;20335;-75
2021/04/14 10:10:18;;;;;;;;;;;21.40;56.80;;;;;;5091934;28;19921;-80
2021/04/14 10:12:45;;;;;;;;;;;21.60;57.20;;;;;;5090493;28;19912;-75
2021/04/14 10:15:12;;;;;;;;;;;21.60;56.00;;;;;;5074833;28;19919;-74
2021/04/14 10:17:40;;;;;;;;;;;21.60;55.60;;;;;;5093609;28;19912;-77
2021/04/14 10:20:25;;;;;;;;;;;21.50;55.70;;;;;;5091956;28;20332;-81
2021/04/14 10:22:52;;;;;;;;;;;21.50;56.70;;;;;;5092310;28;19981;-79
2021/04/14 10:25:27;;;;;;;;;;;21.50;56.20;;;;;;5091445;28;20001;-75
2021/04/14 10:27:59;;;;;;;;;;;21.50;57.70;;;;;;5092518;28;19916;-77
2021/04/14 10:30:28;;;;;;;;;;;21.50;56.00;;;;;;5091883;28;19935;-76
2021/04/14 10:33:04;;;;;;;;;;;21.60;55.30;;;;;;5091376;28;19928;-75
2021/04/14 10:35:31;;;;;;;;;;;21.50;55.00;;;;;;5092605;28;19908;-75
2021/04/14 10:37:58;;;;;;;;;;;21.50;55.40;;;;;;5091807;28;19908;-76
2021/04/14 10:40:24;;;;;;;;;;;21.50;54.30;;;;;;5048590;28;20005;-78
2021/04/14 10:42:53;;;;;;;;;;;21.50;55.30;;;;;;4990715;28;19910;-77
2021/04/14 10:45:20;;;;;;;;;;;21.50;56.00;;;;;;4991508;28;19971;-75
2021/04/14 10:47:49;;;;;;;;;;;21.50;54.60;;;;;;4990831;28;20691;-77
2021/04/14 10:50:23;;;;;;;;;;;21.60;56.30;;;;;;4991600;28;19944;-77
2021/04/14 10:52:55;;;;;;;;;;;21.50;55.60;;;;;;4991943;28;19944;-77
2021/04/14 10:55:24;;;;;;;;;;;21.40;54.60;;;;;;4992019;28;19910;-76
2021/04/14 10:58:01;;;;;;;;;;;21.40;55.50;;;;;;4991402;28;19913;-75
2021/04/14 11:00:33;;;;;;;;;;;21.40;55.00;;;;;;4970839;28;20458;-75
2021/04/14 11:03:07;;;;;;;;;;;21.20;55.20;;;;;;4969565;28;20257;-77
2021/04/14 11:05:36;;;;;;;;;;;21.20;55.60;;;;;;4969973;28;19963;-76
2021/04/14 11:08:03;;;;;;;;;;;21.20;55.40;;;;;;4969675;28;20033;-76
2021/04/14 11:10:33;;;;;;;;;;;21.10;55.10;;;;;;4969877;28;20355;-76
2021/04/14 11:13:00;;;;;;;;;;;21.10;55.20;;;;;;4969932;28;19910;-77
2021/04/14 11:15:33;;;;;;;;;;;21.00;55.70;;;;;;4970006;28;20339;-76
2021/04/14 11:18:02;;;;;;;;;;;21.00;56.60;;;;;;4969370;28;20373;-79
2021/04/14 11:20:39;;;;;;;;;;;21.00;55.60;;;;;;4969908;28;19937;-79
2021/04/14 11:23:15;;;;;;;;;;;21.00;56.10;;;;;;4970114;28;19917;-79
2021/04/14 11:25:42;;;;;;;;;;;21.00;56.90;;;;;;4969526;28;19910;-78
2021/04/14 11:28:10;;;;;;;;;;;21.00;57.80;;;;;;4969697;28;20008;-80
2021/04/14 11:30:48;;;;;;;;;;;21.10;55.30;;;;;;4972579;28;19922;-76
2021/04/14 11:33:17;;;;;;;;;;;21.30;56.50;;;;;;4986716;28;19910;-75
2021/04/14 11:35:48;;;;;;;;;;;21.30;56.80;;;;;;4988424;28;19914;-78
2021/04/14 11:38:36;;;;;;;;;;;21.30;55.00;;;;;;4988377;28;19910;-78
2021/04/14 11:41:32;;;;;;;;;;;21.30;55.90;;;;;;5056156;28;19928;-75
2021/04/14 11:43:59;;;;;;;;;;;21.20;55.60;;;;;;5072193;28;19927;-80
2021/04/14 11:46:34;;;;;;;;;;;21.20;55.70;;;;;;5090717;28;20425;-82
2021/04/14 11:49:02;;;;;;;;;;;21.20;55.40;;;;;;5089786;28;19958;-88
2021/04/14 11:51:55;;;;;;;;;;;21.20;56.10;;;;;;5089860;28;19963;-81
2021/04/14 11:54:33;;;;;;;;;;;21.20;55.70;;;;;;5084066;28;20017;-82
2021/04/14 11:57:02;;;;;;;;;;;21.20;56.70;;;;;;5091242;28;19953;-82
2021/04/14 11:59:30;;;;;;;;;;;21.10;57.70;;;;;;5090622;28;19981;-81
2021/04/14 12:01:58;;;;;;;;;;;21.10;56.90;;;;;;5095591;28;20090;-80
2021/04/14 12:04:25;;;;;;;;;;;21.00;58.10;;;;;;5095714;28;19911;-81
2021/04/14 12:06:52;;;;;;;;;;;21.10;56.60;;;;;;5099334;28;19957;-79
2021/04/14 12:09:19;;;;;;;;;;;21.00;56.30;;;;;;5090546;28;20014;-80
2021/04/14 12:11:56;;;;;;;;;;;21.10;57.00;;;;;;5090440;28;19912;-81
2021/04/14 12:14:22;;;;;;;;;;;21.10;55.60;;;;;;5090659;28;19916;-81
2021/04/14 12:16:49;;;;;;;;;;;21.30;56.20;;;;;;5090953;28;19912;-79
2021/04/14 12:19:16;;;;;;;;;;;21.20;56.80;;;;;;5090635;28;19912;-82
2021/04/14 12:21:42;;;;;;;;;;;21.20;57.70;;;;;;5089913;28;20864;-83
2021/04/14 12:24:09;;;;;;;;;;;21.10;57.80;;;;;;5088854;28;20338;-81
2021/04/14 12:26:36;;;;;;;;;;;21.20;56.30;;;;;;5089815;28;20011;-82
2021/04/14 12:29:02;;;;;;;;;;;21.20;57.00;;;;;;5071896;28;19923;-80
2021/04/14 12:31:32;;;;;;;;;;;21.20;55.40;;;;;;5088800;28;19924;-82
2021/04/14 12:33:59;;;;;;;;;;;21.10;55.50;;;;;;5078222;28;19919;-82
2021/04/14 12:36:26;;;;;;;;;;;21.10;57.50;;;;;;5072644;28;19912;-89
2021/04/14 12:38:53;;;;;;;;;;;21.10;58.40;;;;;;5089388;28;19956;-80
2021/04/14 12:41:20;;;;;;;;;;;21.10;57.50;;;;;;5089653;28;20392;-84
2021/04/14 12:43:46;;;;;;;;;;;21.10;55.20;;;;;;5082928;28;19912;-82
2021/04/14 12:46:13;;;;;;;;;;;21.10;56.50;;;;;;5090233;28;19912;-81
2021/04/14 12:48:43;;;;;;;;;;;21.20;56.70;;;;;;5092348;28;19916;-80
2021/04/14 12:51:18;;;;;;;;;;;21.30;56.50;;;;;;5094255;28;19919;-81
2021/04/14 12:53:50;;;;;;;;;;;21.30;57.80;;;;;;5083676;28;19916;-82
2021/04/14 12:56:30;;;;;;;;;;;21.30;56.00;;;;;;5093953;28;19990;-79
2021/04/14 12:59:00;;;;;;;;;;;21.20;56.60;;;;;;5094403;28;19918;-81
2021/04/14 13:01:27;;;;;;;;;;;21.20;56.20;;;;;;5093996;28;19957;-83
2021/04/14 13:04:09;;;;;;;;;;;21.20;56.90;;;;;;5093657;28;19990;-83
2021/04/14 13:06:46;;;;;;;;;;;21.00;57.00;;;;;;5094306;28;19912;-83
2021/04/14 13:09:13;;;;;;;;;;;21.00;57.30;;;;;;5093992;28;19916;-83
2021/04/14 13:11:46;;;;;;;;;;;21.00;58.50;;;;;;5093600;28;19912;-83
2021/04/14 13:14:12;;;;;;;;;;;21.10;56.60;;;;;;5094093;28;20429;-82
2021/04/14 13:16:48;;;;;;;;;;;21.10;58.20;;;;;;5094043;28;20374;-84
2021/04/14 13:19:15;;;;;;;;;;;21.00;56.90;;;;;;5094318;28;20003;-82
2021/04/14 13:21:47;;;;;;;;;;;20.90;61.30;;;;;;5075445;28;19916;-83
2021/04/14 13:24:32;;;;;;;;;;;20.90;57.40;;;;;;5075331;28;20559;-81
2021/04/14 13:27:11;;;;;;;;;;;20.80;58.90;;;;;;5094156;28;19918;-82
2021/04/14 13:29:41;;;;;;;;;;;20.70;57.30;;;;;;5092134;28;19915;-82
2021/04/14 13:32:08;;;;;;;;;;;20.70;57.50;;;;;;5092654;28;19919;-82
2021/04/14 13:34:43;;;;;;;;;;;20.70;58.70;;;;;;5093873;28;19908;-81
2021/04/14 13:37:12;;;;;;;;;;;20.70;58.80;;;;;;5093535;28;19912;-82
2021/04/14 13:39:45;;;;;;;;;;;20.50;58.40;;;;;;5093613;28;19916;-82
2021/04/14 13:42:29;;;;;;;;;;;20.50;59.40;;;;;;5092929;28;19920;-82
2021/04/14 13:44:56;;;;;;;;;;;20.40;60.00;;;;;;5093553;28;20032;-82
2021/04/14 13:47:42;;;;;;;;;;;20.30;59.20;;;;;;5093505;28;19911;-83
2021/04/14 13:50:12;;;;;;;;;;;20.30;59.60;;;;;;5091645;28;19912;-81
2021/04/14 13:52:39;;;;;;;;;;;20.30;59.20;;;;;;5102717;28;19911;-80
2021/04/14 13:55:07;;;;;;;;;;;20.40;59.00;;;;;;5079204;28;19916;-81
2021/04/14 13:57:37;;;;;;;;;;;20.40;60.70;;;;;;5091854;28;19920;-82
2021/04/14 14:00:13;;;;;;;;;;;20.40;60.00;;;;;;5092797;28;19916;-82
2021/04/14 14:02:42;;;;;;;;;;;20.40;59.60;;;;;;5074765;28;19916;-80
2021/04/14 14:05:09;;;;;;;;;;;20.40;59.50;;;;;;5092964;28;19967;-81
2021/04/14 14:08:05;;;;;;;;;;;20.30;59.40;;;;;;5092817;28;19912;-82
2021/04/14 14:10:55;;;;;;;;;;;20.30;60.20;;;;;;5083979;28;19912;-83
2021/04/14 14:13:26;;;;;;;;;;;20.20;60.20;;;;;;5087321;28;19995;-82
2021/04/14 14:16:08;;;;;;;;;;;20.20;60.40;;;;;;5092482;28;19916;-82
2021/04/14 14:18:35;;;;;;;;;;;20.10;60.70;;;;;;5092928;28;20385;-82
2021/04/14 14:21:03;;;;;;;;;;;20.00;61.60;;;;;;5092803;28;19943;-82
2021/04/14 14:23:30;;;;;;;;;;;19.90;62.50;;;;;;5092631;28;20274;-81
2021/04/14 14:25:58;;;;;;;;;;;19.70;65.10;;;;;;5092237;28;19915;-80
2021/04/14 14:28:26;;;;;;;;;;;19.60;63.50;;;;;;5092406;28;19908;-81
2021/04/14 14:30:54;;;;;;;;;;;19.50;63.40;;;;;;5092515;28;19912;-82
2021/04/14 14:33:21;;;;;;;;;;;19.40;64.40;;;;;;5092432;28;19908;-82
2021/04/14 14:35:50;;;;;;;;;;;19.30;65.20;;;;;;5092707;28;19912;-82
2021/04/14 14:38:20;;;;;;;;;;;19.20;65.30;;;;;;5092623;28;19912;-82